sensor_id;sensor_type;location;lat;lon;timestamp;pressure;altitude;pressure_sealevel;temperature;humidity
41706;BME280;27385;51.096;17.190;2022-07-29T00:01:42;100579.90;;;14.34;54.49
41706;BME280;27385;51.096;17.190;2022-07-29T00:04:14;100572.29;;;14.28;54.77
41706;BME280;27385;51.096;17.190;2022-07-29T00:06:46;100577.81;;;14.25;54.72
41706;BME280;27385;51.096;17.190;2022-07-29T00:09:17;100572.98;;;14.23;54.97
41706;BME280;27385;51.096;17.190;2022-07-29T00:11:49;100579.11;;;14.23;55.01
41706;BME280;27385;51.096;17.190;2022-07-29T00:14:21;100576.57;;;14.20;55.03
41706;BME280;27385;51.096;17.190;2022-07-29T00:16:52;100576.38;;;14.15;55.12
41706;BME280;27385;51.096;17.190;2022-07-29T00:19:24;100579.76;;;14.11;55.25
41706;BME280;27385;51.096;17.190;2022-07-29T00:21:55;100581.05;;;14.07;55.58
41706;BME280;27385;51.096;17.190;2022-07-29T00:24:27;100579.48;;;14.04;55.55
41706;BME280;27385;51.096;17.190;2022-07-29T00:26:59;100580.57;;;14.01;55.62
41706;BME280;27385;51.096;17.190;2022-07-29T00:29:31;100583.60;;;13.99;55.78
41706;BME280;27385;51.096;17.190;2022-07-29T00:32:02;100585.11;;;13.96;55.94
41706;BME280;27385;51.096;17.190;2022-07-29T00:34:34;100584.62;;;13.94;55.97
41706;BME280;27385;51.096;17.190;2022-07-29T00:37:23;100576.92;;;13.93;56.20
41706;BME280;27385;51.096;17.190;2022-07-29T00:39:55;100572.36;;;13.92;56.42
41706;BME280;27385;51.096;17.190;2022-07-29T00:42:27;100572.59;;;13.90;56.48
41706;BME280;27385;51.096;17.190;2022-07-29T00:44:58;100568.61;;;13.86;56.65
41706;BME280;27385;51.096;17.190;2022-07-29T00:47:30;100571.41;;;13.84;56.57
41706;BME280;27385;51.096;17.190;2022-07-29T00:50:02;100563.23;;;13.82;56.94
41706;BME280;27385;51.096;17.190;2022-07-29T00:52:35;100563.21;;;13.76;56.90
41706;BME280;27385;51.096;17.190;2022-07-29T00:55:09;100563.17;;;13.72;57.05
41706;BME280;27385;51.096;17.190;2022-07-29T00:57:42;100560.56;;;13.67;57.36
41706;BME280;27385;51.096;17.190;2022-07-29T01:00:18;100558.25;;;13.62;57.40
41706;BME280;27385;51.096;17.190;2022-07-29T01:02:50;100560.70;;;13.57;57.61
41706;BME280;27385;51.096;17.190;2022-07-29T01:05:23;100561.34;;;13.56;57.68
41706;BME280;27385;51.096;17.190;2022-07-29T01:07:55;100561.95;;;13.51;57.72
41706;BME280;27385;51.096;17.190;2022-07-29T01:10:29;100566.30;;;13.48;58.10
41706;BME280;27385;51.096;17.190;2022-07-29T01:13:02;100571.05;;;13.45;57.98
41706;BME280;27385;51.096;17.190;2022-07-29T01:15:36;100570.80;;;13.42;58.22
41706;BME280;27385;51.096;17.190;2022-07-29T01:18:18;100567.36;;;13.40;58.20
41706;BME280;27385;51.096;17.190;2022-07-29T01:21:15;100566.85;;;13.36;58.30
41706;BME280;27385;51.096;17.190;2022-07-29T01:24:26;100567.96;;;13.31;58.47
41706;BME280;27385;51.096;17.190;2022-07-29T01:27:09;100568.91;;;13.26;58.75
41706;BME280;27385;51.096;17.190;2022-07-29T01:29:51;100565.66;;;13.23;58.69
41706;BME280;27385;51.096;17.190;2022-07-29T01:32:28;100556.66;;;13.20;58.89
41706;BME280;27385;51.096;17.190;2022-07-29T01:35:06;100553.73;;;13.20;59.08
41706;BME280;27385;51.096;17.190;2022-07-29T01:37:43;100552.27;;;13.17;59.15
41706;BME280;27385;51.096;17.190;2022-07-29T01:40:25;100556.33;;;13.14;59.44
41706;BME280;27385;51.096;17.190;2022-07-29T01:42:59;100556.74;;;13.11;59.25
41706;BME280;27385;51.096;17.190;2022-07-29T01:45:38;100555.52;;;13.09;59.47
41706;BME280;27385;51.096;17.190;2022-07-29T01:48:15;100555.02;;;13.08;59.59
41706;BME280;27385;51.096;17.190;2022-07-29T01:50:49;100558.00;;;13.07;59.81
41706;BME280;27385;51.096;17.190;2022-07-29T01:53:28;100551.17;;;13.03;59.94
41706;BME280;27385;51.096;17.190;2022-07-29T01:56:02;100547.77;;;12.99;60.06
41706;BME280;27385;51.096;17.190;2022-07-29T01:58:36;100544.13;;;12.97;59.93
41706;BME280;27385;51.096;17.190;2022-07-29T02:01:10;100545.46;;;12.98;60.08
41706;BME280;27385;51.096;17.190;2022-07-29T02:03:44;100538.42;;;12.97;60.37
41706;BME280;27385;51.096;17.190;2022-07-29T02:06:21;100536.07;;;12.96;60.33
41706;BME280;27385;51.096;17.190;2022-07-29T02:08:54;100532.80;;;12.95;60.40
41706;BME280;27385;51.096;17.190;2022-07-29T02:11:27;100532.65;;;12.92;60.59
41706;BME280;27385;51.096;17.190;2022-07-29T02:14:00;100535.00;;;12.89;60.80
41706;BME280;27385;51.096;17.190;2022-07-29T02:16:33;100540.29;;;12.89;60.89
41706;BME280;27385;51.096;17.190;2022-07-29T02:19:08;100538.05;;;12.86;61.13
41706;BME280;27385;51.096;17.190;2022-07-29T02:21:42;100536.77;;;12.82;61.25
41706;BME280;27385;51.096;17.190;2022-07-29T02:24:15;100535.92;;;12.80;61.24
41706;BME280;27385;51.096;17.190;2022-07-29T02:26:49;100529.83;;;12.77;61.39
41706;BME280;27385;51.096;17.190;2022-07-29T02:29:23;100527.63;;;12.77;61.52
41706;BME280;27385;51.096;17.190;2022-07-29T02:31:58;100532.70;;;12.75;61.57
41706;BME280;27385;51.096;17.190;2022-07-29T02:34:32;100534.31;;;12.70;61.89
41706;BME280;27385;51.096;17.190;2022-07-29T02:37:05;100529.46;;;12.66;61.83
41706;BME280;27385;51.096;17.190;2022-07-29T02:39:37;100535.20;;;12.62;62.01
41706;BME280;27385;51.096;17.190;2022-07-29T02:42:12;100537.30;;;12.59;61.97
41706;BME280;27385;51.096;17.190;2022-07-29T02:44:44;100532.47;;;12.57;62.33
41706;BME280;27385;51.096;17.190;2022-07-29T02:47:20;100528.36;;;12.54;62.12
41706;BME280;27385;51.096;17.190;2022-07-29T02:50:00;100531.58;;;12.51;62.38
41706;BME280;27385;51.096;17.190;2022-07-29T02:52:37;100533.76;;;12.48;62.41
41706;BME280;27385;51.096;17.190;2022-07-29T02:55:16;100533.53;;;12.43;62.63
41706;BME280;27385;51.096;17.190;2022-07-29T02:57:54;100534.77;;;12.40;62.73
41706;BME280;27385;51.096;17.190;2022-07-29T03:00:29;100529.16;;;12.37;62.87
41706;BME280;27385;51.096;17.190;2022-07-29T03:03:01;100529.23;;;12.35;62.98
41706;BME280;27385;51.096;17.190;2022-07-29T03:05:35;100527.20;;;12.32;62.97
41706;BME280;27385;51.096;17.190;2022-07-29T03:08:10;100535.61;;;12.31;63.27
41706;BME280;27385;51.096;17.190;2022-07-29T03:10:44;100533.79;;;12.28;63.07
41706;BME280;27385;51.096;17.190;2022-07-29T03:13:17;100535.05;;;12.25;63.30
41706;BME280;27385;51.096;17.190;2022-07-29T03:15:50;100531.30;;;12.25;63.34
41706;BME280;27385;51.096;17.190;2022-07-29T03:18:25;100530.70;;;12.26;63.57
41706;BME280;27385;51.096;17.190;2022-07-29T03:20:56;100534.25;;;12.22;63.87
41706;BME280;27385;51.096;17.190;2022-07-29T03:23:28;100537.23;;;12.17;63.91
41706;BME280;27385;51.096;17.190;2022-07-29T03:25:59;100540.20;;;12.15;64.15
41706;BME280;27385;51.096;17.190;2022-07-29T03:28:31;100535.81;;;12.15;64.07
41706;BME280;27385;51.096;17.190;2022-07-29T03:31:02;100538.96;;;12.15;64.21
41706;BME280;27385;51.096;17.190;2022-07-29T03:33:33;100538.02;;;12.13;64.30
41706;BME280;27385;51.096;17.190;2022-07-29T03:36:05;100541.34;;;12.13;64.44
41706;BME280;27385;51.096;17.190;2022-07-29T03:38:38;100539.80;;;12.15;64.64
41706;BME280;27385;51.096;17.190;2022-07-29T03:41:13;100541.54;;;12.16;64.73
41706;BME280;27385;51.096;17.190;2022-07-29T03:43:46;100539.96;;;12.14;65.02
41706;BME280;27385;51.096;17.190;2022-07-29T03:46:19;100541.73;;;12.16;64.88
41706;BME280;27385;51.096;17.190;2022-07-29T03:48:55;100544.67;;;12.18;65.20
41706;BME280;27385;51.096;17.190;2022-07-29T03:51:29;100544.41;;;12.21;65.16
41706;BME280;27385;51.096;17.190;2022-07-29T03:54:01;100547.27;;;12.21;65.37
41706;BME280;27385;51.096;17.190;2022-07-29T03:56:34;100548.30;;;12.19;65.60
41706;BME280;27385;51.096;17.190;2022-07-29T03:59:08;100549.13;;;12.20;65.76
41706;BME280;27385;51.096;17.190;2022-07-29T04:01:43;100552.05;;;12.24;65.77
41706;BME280;27385;51.096;17.190;2022-07-29T04:04:16;100552.30;;;12.30;65.84
41706;BME280;27385;51.096;17.190;2022-07-29T04:06:48;100553.98;;;12.36;65.90
41706;BME280;27385;51.096;17.190;2022-07-29T04:09:19;100558.73;;;12.40;65.87
41706;BME280;27385;51.096;17.190;2022-07-29T04:11:50;100554.95;;;12.45;66.05
41706;BME280;27385;51.096;17.190;2022-07-29T04:14:23;100554.72;;;12.50;66.15
41706;BME280;27385;51.096;17.190;2022-07-29T04:16:55;100554.21;;;12.57;66.24
41706;BME280;27385;51.096;17.190;2022-07-29T04:19:26;100556.22;;;12.64;66.27
41706;BME280;27385;51.096;17.190;2022-07-29T04:21:58;100559.45;;;12.72;66.39
41706;BME280;27385;51.096;17.190;2022-07-29T04:24:30;100551.66;;;12.79;66.37
41706;BME280;27385;51.096;17.190;2022-07-29T04:27:02;100549.11;;;12.86;66.12
41706;BME280;27385;51.096;17.190;2022-07-29T04:29:33;100548.47;;;12.94;66.24
41706;BME280;27385;51.096;17.190;2022-07-29T04:32:07;100550.73;;;13.02;66.38
41706;BME280;27385;51.096;17.190;2022-07-29T04:34:39;100546.85;;;13.12;66.24
41706;BME280;27385;51.096;17.190;2022-07-29T04:37:10;100545.92;;;13.22;66.31
41706;BME280;27385;51.096;17.190;2022-07-29T04:39:43;100546.47;;;13.33;66.34
41706;BME280;27385;51.096;17.190;2022-07-29T04:42:14;100541.01;;;13.45;66.27
41706;BME280;27385;51.096;17.190;2022-07-29T04:44:46;100546.72;;;13.57;66.30
41706;BME280;27385;51.096;17.190;2022-07-29T04:47:18;100552.31;;;13.69;66.25
41706;BME280;27385;51.096;17.190;2022-07-29T04:49:49;100555.36;;;13.82;66.21
41706;BME280;27385;51.096;17.190;2022-07-29T04:52:21;100549.59;;;13.96;66.02
41706;BME280;27385;51.096;17.190;2022-07-29T04:54:53;100547.17;;;14.09;66.12
41706;BME280;27385;51.096;17.190;2022-07-29T04:57:25;100546.21;;;14.26;66.03
41706;BME280;27385;51.096;17.190;2022-07-29T04:59:56;100545.30;;;14.42;66.15
41706;BME280;27385;51.096;17.190;2022-07-29T05:02:28;100545.55;;;14.55;65.80
41706;BME280;27385;51.096;17.190;2022-07-29T05:05:00;100547.05;;;14.71;65.59
41706;BME280;27385;51.096;17.190;2022-07-29T05:07:31;100539.71;;;14.89;65.50
41706;BME280;27385;51.096;17.190;2022-07-29T05:10:03;100534.96;;;15.07;65.33
41706;BME280;27385;51.096;17.190;2022-07-29T05:12:35;100537.92;;;15.25;64.92
41706;BME280;27385;51.096;17.190;2022-07-29T05:15:09;100538.52;;;15.40;64.92
41706;BME280;27385;51.096;17.190;2022-07-29T05:17:40;100539.96;;;15.55;64.54
41706;BME280;27385;51.096;17.190;2022-07-29T05:20:12;100535.96;;;15.68;64.45
41706;BME280;27385;51.096;17.190;2022-07-29T05:22:43;100538.21;;;15.85;63.95
41706;BME280;27385;51.096;17.190;2022-07-29T05:25:15;100538.41;;;16.03;63.86
41706;BME280;27385;51.096;17.190;2022-07-29T05:27:47;100540.63;;;16.21;63.88
41706;BME280;27385;51.096;17.190;2022-07-29T05:30:19;100539.30;;;16.36;63.55
41706;BME280;27385;51.096;17.190;2022-07-29T05:32:50;100541.36;;;16.46;63.56
41706;BME280;27385;51.096;17.190;2022-07-29T05:35:22;100541.38;;;16.56;63.32
41706;BME280;27385;51.096;17.190;2022-07-29T05:37:54;100541.07;;;16.66;63.12
41706;BME280;27385;51.096;17.190;2022-07-29T05:40:26;100541.21;;;16.73;62.98
41706;BME280;27385;51.096;17.190;2022-07-29T05:42:58;100539.67;;;16.81;62.75
41706;BME280;27385;51.096;17.190;2022-07-29T05:45:29;100541.34;;;16.88;62.63
41706;BME280;27385;51.096;17.190;2022-07-29T05:48:01;100538.45;;;16.94;62.33
41706;BME280;27385;51.096;17.190;2022-07-29T05:50:33;100535.88;;;17.02;62.30
41706;BME280;27385;51.096;17.190;2022-07-29T05:53:04;100536.61;;;17.12;62.41
41706;BME280;27385;51.096;17.190;2022-07-29T05:55:36;100537.86;;;17.23;62.11
41706;BME280;27385;51.096;17.190;2022-07-29T05:58:08;100535.73;;;17.34;61.79
41706;BME280;27385;51.096;17.190;2022-07-29T06:00:39;100531.58;;;17.42;61.53
41706;BME280;27385;51.096;17.190;2022-07-29T06:03:11;100537.27;;;17.51;61.11
41706;BME280;27385;51.096;17.190;2022-07-29T06:05:42;100543.44;;;17.60;60.87
41706;BME280;27385;51.096;17.190;2022-07-29T06:08:14;100541.60;;;17.71;60.88
41706;BME280;27385;51.096;17.190;2022-07-29T06:10:46;100539.64;;;17.80;60.38
41706;BME280;27385;51.096;17.190;2022-07-29T06:13:18;100536.61;;;17.89;60.11
41706;BME280;27385;51.096;17.190;2022-07-29T06:15:50;100536.71;;;17.97;59.82
41706;BME280;27385;51.096;17.190;2022-07-29T06:18:22;100537.39;;;18.05;59.56
41706;BME280;27385;51.096;17.190;2022-07-29T06:20:57;100536.55;;;18.13;59.44
41706;BME280;27385;51.096;17.190;2022-07-29T06:23:28;100530.98;;;18.22;59.29
41706;BME280;27385;51.096;17.190;2022-07-29T06:26:00;100529.25;;;18.33;58.98
41706;BME280;27385;51.096;17.190;2022-07-29T06:28:32;100529.84;;;18.47;58.73
41706;BME280;27385;51.096;17.190;2022-07-29T06:31:03;100529.14;;;18.64;58.59
41706;BME280;27385;51.096;17.190;2022-07-29T06:33:35;100528.82;;;18.76;57.86
41706;BME280;27385;51.096;17.190;2022-07-29T06:36:08;100528.98;;;18.91;57.62
41706;BME280;27385;51.096;17.190;2022-07-29T06:38:40;100531.76;;;19.05;57.30
41706;BME280;27385;51.096;17.190;2022-07-29T06:41:11;100535.29;;;19.15;56.72
41706;BME280;27385;51.096;17.190;2022-07-29T06:43:46;100536.27;;;19.27;56.44
41706;BME280;27385;51.096;17.190;2022-07-29T06:46:19;100535.28;;;19.41;56.25
41706;BME280;27385;51.096;17.190;2022-07-29T06:48:51;100537.80;;;19.53;55.81
41706;BME280;27385;51.096;17.190;2022-07-29T06:51:23;100539.89;;;19.63;55.35
41706;BME280;27385;51.096;17.190;2022-07-29T06:53:55;100543.98;;;19.72;55.14
41706;BME280;27385;51.096;17.190;2022-07-29T06:56:27;100539.62;;;19.82;55.00
41706;BME280;27385;51.096;17.190;2022-07-29T06:58:59;100539.05;;;19.93;54.52
41706;BME280;27385;51.096;17.190;2022-07-29T07:01:30;100532.79;;;20.05;54.60
41706;BME280;27385;51.096;17.190;2022-07-29T07:04:02;100537.83;;;20.21;54.54
41706;BME280;27385;51.096;17.190;2022-07-29T07:06:34;100538.98;;;20.37;54.45
41706;BME280;27385;51.096;17.190;2022-07-29T07:09:06;100544.70;;;20.50;53.97
41706;BME280;27385;51.096;17.190;2022-07-29T07:11:37;100544.97;;;20.58;53.44
41706;BME280;27385;51.096;17.190;2022-07-29T07:14:09;100537.61;;;20.66;52.84
41706;BME280;27385;51.096;17.190;2022-07-29T07:16:40;100531.24;;;20.73;52.77
41706;BME280;27385;51.096;17.190;2022-07-29T07:19:11;100531.75;;;20.80;52.30
41706;BME280;27385;51.096;17.190;2022-07-29T07:21:43;100530.06;;;20.87;52.13
41706;BME280;27385;51.096;17.190;2022-07-29T07:24:14;100528.95;;;20.93;51.89
41706;BME280;27385;51.096;17.190;2022-07-29T07:26:46;100522.70;;;21.01;51.63
41706;BME280;27385;51.096;17.190;2022-07-29T07:29:18;100527.77;;;21.11;51.64
41706;BME280;27385;51.096;17.190;2022-07-29T07:31:49;100528.43;;;21.25;51.45
41706;BME280;27385;51.096;17.190;2022-07-29T07:34:21;100522.85;;;21.43;51.29
41706;BME280;27385;51.096;17.190;2022-07-29T07:36:52;100522.14;;;21.57;51.11
41706;BME280;27385;51.096;17.190;2022-07-29T07:39:24;100514.95;;;21.67;50.39
41706;BME280;27385;51.096;17.190;2022-07-29T07:41:58;100517.02;;;21.73;50.03
41706;BME280;27385;51.096;17.190;2022-07-29T07:44:34;100520.91;;;21.81;49.79
41706;BME280;27385;51.096;17.190;2022-07-29T07:47:06;100520.44;;;21.84;49.38
41706;BME280;27385;51.096;17.190;2022-07-29T07:49:38;100519.45;;;21.87;49.31
41706;BME280;27385;51.096;17.190;2022-07-29T07:52:11;100516.23;;;21.91;49.05
41706;BME280;27385;51.096;17.190;2022-07-29T07:54:43;100515.98;;;21.96;48.82
41706;BME280;27385;51.096;17.190;2022-07-29T07:57:15;100515.92;;;22.01;48.75
41706;BME280;27385;51.096;17.190;2022-07-29T07:59:47;100512.27;;;22.09;48.65
41706;BME280;27385;51.096;17.190;2022-07-29T08:02:19;100514.35;;;22.19;48.62
41706;BME280;27385;51.096;17.190;2022-07-29T08:04:54;100512.65;;;22.29;48.32
41706;BME280;27385;51.096;17.190;2022-07-29T08:07:25;100512.09;;;22.37;48.24
41706;BME280;27385;51.096;17.190;2022-07-29T08:09:57;100514.39;;;22.44;47.76
41706;BME280;27385;51.096;17.190;2022-07-29T08:12:28;100515.02;;;22.52;47.85
41706;BME280;27385;51.096;17.190;2022-07-29T08:15:00;100516.02;;;22.60;47.79
41706;BME280;27385;51.096;17.190;2022-07-29T08:17:31;100512.46;;;22.70;47.75
41706;BME280;27385;51.096;17.190;2022-07-29T08:20:04;100513.54;;;22.79;47.73
41706;BME280;27385;51.096;17.190;2022-07-29T08:22:36;100515.60;;;22.87;47.31
41706;BME280;27385;51.096;17.190;2022-07-29T08:25:09;100517.23;;;22.93;47.24
41706;BME280;27385;51.096;17.190;2022-07-29T08:27:41;100516.64;;;23.01;46.86
41706;BME280;27385;51.096;17.190;2022-07-29T08:30:13;100511.19;;;23.09;47.00
41706;BME280;27385;51.096;17.190;2022-07-29T08:32:45;100507.73;;;23.20;46.68
41706;BME280;27385;51.096;17.190;2022-07-29T08:35:18;100504.46;;;23.27;46.48
41706;BME280;27385;51.096;17.190;2022-07-29T08:37:50;100505.92;;;23.33;46.32
41706;BME280;27385;51.096;17.190;2022-07-29T08:40:22;100503.94;;;23.38;46.05
41706;BME280;27385;51.096;17.190;2022-07-29T08:42:54;100507.70;;;23.45;45.96
41706;BME280;27385;51.096;17.190;2022-07-29T08:45:26;100508.41;;;23.51;45.81
41706;BME280;27385;51.096;17.190;2022-07-29T08:48:00;100510.83;;;23.57;45.54
41706;BME280;27385;51.096;17.190;2022-07-29T08:50:32;100509.71;;;23.61;45.43
41706;BME280;27385;51.096;17.190;2022-07-29T08:53:06;100514.76;;;23.68;45.29
41706;BME280;27385;51.096;17.190;2022-07-29T08:55:40;100509.90;;;23.72;45.24
41706;BME280;27385;51.096;17.190;2022-07-29T08:58:14;100507.15;;;23.76;45.23
41706;BME280;27385;51.096;17.190;2022-07-29T09:00:48;100502.95;;;23.81;45.10
41706;BME280;27385;51.096;17.190;2022-07-29T09:03:22;100501.34;;;23.87;45.09
41706;BME280;27385;51.096;17.190;2022-07-29T09:05:54;100496.44;;;23.96;45.26
41706;BME280;27385;51.096;17.190;2022-07-29T09:08:26;100499.45;;;24.06;44.95
41706;BME280;27385;51.096;17.190;2022-07-29T09:11:00;100493.17;;;24.15;44.59
41706;BME280;27385;51.096;17.190;2022-07-29T09:13:32;100492.49;;;24.23;44.82
41706;BME280;27385;51.096;17.190;2022-07-29T09:16:04;100492.16;;;24.33;44.66
41706;BME280;27385;51.096;17.190;2022-07-29T09:18:40;100495.10;;;24.46;44.33
41706;BME280;27385;51.096;17.190;2022-07-29T09:21:14;100491.41;;;24.55;44.26
41706;BME280;27385;51.096;17.190;2022-07-29T09:24:06;100493.48;;;24.63;43.78
41706;BME280;27385;51.096;17.190;2022-07-29T09:26:39;100492.55;;;24.68;43.89
41706;BME280;27385;51.096;17.190;2022-07-29T09:29:13;100495.77;;;24.75;43.71
41706;BME280;27385;51.096;17.190;2022-07-29T09:31:46;100491.50;;;24.81;43.35
41706;BME280;27385;51.096;17.190;2022-07-29T09:34:21;100485.63;;;24.86;43.28
41706;BME280;27385;51.096;17.190;2022-07-29T09:36:53;100482.99;;;24.95;42.96
41706;BME280;27385;51.096;17.190;2022-07-29T09:39:33;100482.84;;;24.98;42.74
41706;BME280;27385;51.096;17.190;2022-07-29T09:42:07;100477.75;;;25.04;42.72
41706;BME280;27385;51.096;17.190;2022-07-29T09:44:46;100478.43;;;25.09;42.67
41706;BME280;27385;51.096;17.190;2022-07-29T09:47:19;100474.95;;;25.13;42.73
41706;BME280;27385;51.096;17.190;2022-07-29T09:49:56;100476.05;;;25.17;42.43
41706;BME280;27385;51.096;17.190;2022-07-29T09:52:29;100473.74;;;25.21;42.41
41706;BME280;27385;51.096;17.190;2022-07-29T09:55:08;100474.84;;;25.27;42.20
41706;BME280;27385;51.096;17.190;2022-07-29T09:57:40;100472.46;;;25.29;42.21
41706;BME280;27385;51.096;17.190;2022-07-29T10:00:14;100474.47;;;25.32;42.42
41706;BME280;27385;51.096;17.190;2022-07-29T10:02:48;100473.13;;;25.35;42.07
41706;BME280;27385;51.096;17.190;2022-07-29T10:05:21;100468.58;;;25.38;41.99
41706;BME280;27385;51.096;17.190;2022-07-29T10:07:55;100469.50;;;25.40;41.80
41706;BME280;27385;51.096;17.190;2022-07-29T10:10:28;100465.19;;;25.40;41.56
41706;BME280;27385;51.096;17.190;2022-07-29T10:13:03;100464.77;;;25.40;41.66
41706;BME280;27385;51.096;17.190;2022-07-29T10:15:38;100464.36;;;25.43;41.58
41706;BME280;27385;51.096;17.190;2022-07-29T10:18:11;100462.01;;;25.47;41.67
41706;BME280;27385;51.096;17.190;2022-07-29T10:20:43;100463.53;;;25.50;41.46
41706;BME280;27385;51.096;17.190;2022-07-29T10:23:14;100457.96;;;25.50;41.28
41706;BME280;27385;51.096;17.190;2022-07-29T10:25:46;100459.23;;;25.48;41.07
41706;BME280;27385;51.096;17.190;2022-07-29T10:28:18;100460.52;;;25.47;41.03
41706;BME280;27385;51.096;17.190;2022-07-29T10:30:51;100456.89;;;25.46;41.14
41706;BME280;27385;51.096;17.190;2022-07-29T10:33:37;100453.64;;;25.46;41.18
41706;BME280;27385;51.096;17.190;2022-07-29T10:36:23;100450.95;;;25.50;41.16
41706;BME280;27385;51.096;17.190;2022-07-29T10:39:03;100453.71;;;25.54;41.01
41706;BME280;27385;51.096;17.190;2022-07-29T10:42:02;100457.71;;;25.55;40.93
41706;BME280;27385;51.096;17.190;2022-07-29T10:44:37;100458.50;;;25.57;40.55
41706;BME280;27385;51.096;17.190;2022-07-29T10:47:21;100455.30;;;25.58;40.66
41706;BME280;27385;51.096;17.190;2022-07-29T10:53:51;100450.41;;;25.61;40.58
41706;BME280;27385;51.096;17.190;2022-07-29T10:56:41;100454.30;;;25.68;40.94
41706;BME280;27385;51.096;17.190;2022-07-29T10:59:30;100453.52;;;25.74;40.53
41706;BME280;27385;51.096;17.190;2022-07-29T11:02:42;100455.15;;;25.76;40.36
41706;BME280;27385;51.096;17.190;2022-07-29T11:05:56;100451.42;;;25.78;40.50
41706;BME280;27385;51.096;17.190;2022-07-29T11:08:45;100450.40;;;25.82;40.25
41706;BME280;27385;51.096;17.190;2022-07-29T11:11:38;100454.20;;;25.90;40.38
41706;BME280;27385;51.096;17.190;2022-07-29T11:14:11;100450.33;;;25.99;40.43
41706;BME280;27385;51.096;17.190;2022-07-29T11:17:03;100444.55;;;26.05;40.03
41706;BME280;27385;51.096;17.190;2022-07-29T11:19:37;100447.40;;;26.06;39.67
41706;BME280;27385;51.096;17.190;2022-07-29T11:22:30;100441.86;;;26.05;39.74
41706;BME280;27385;51.096;17.190;2022-07-29T11:25:16;100442.17;;;26.15;39.84
41706;BME280;27385;51.096;17.190;2022-07-29T11:27:48;100441.68;;;26.24;39.55
41706;BME280;27385;51.096;17.190;2022-07-29T11:30:20;100438.16;;;26.33;39.61
41706;BME280;27385;51.096;17.190;2022-07-29T11:32:52;100435.14;;;26.43;39.32
41706;BME280;27385;51.096;17.190;2022-07-29T11:35:24;100438.27;;;26.47;39.15
41706;BME280;27385;51.096;17.190;2022-07-29T11:38:27;100439.02;;;26.57;39.34
41706;BME280;27385;51.096;17.190;2022-07-29T11:41:28;100440.90;;;26.68;38.72
41706;BME280;27385;51.096;17.190;2022-07-29T11:44:05;100437.52;;;26.69;38.92
41706;BME280;27385;51.096;17.190;2022-07-29T11:46:47;100435.58;;;26.73;38.96
41706;BME280;27385;51.096;17.190;2022-07-29T11:49:24;100441.36;;;26.82;38.94
41706;BME280;27385;51.096;17.190;2022-07-29T11:51:57;100442.70;;;26.86;38.51
41706;BME280;27385;51.096;17.190;2022-07-29T11:54:32;100443.20;;;26.85;38.41
41706;BME280;27385;51.096;17.190;2022-07-29T11:57:08;100446.38;;;26.85;38.51
41706;BME280;27385;51.096;17.190;2022-07-29T11:59:42;100441.80;;;26.90;38.84
41706;BME280;27385;51.096;17.190;2022-07-29T12:02:15;100440.94;;;26.94;38.92
41706;BME280;27385;51.096;17.190;2022-07-29T12:04:54;100440.20;;;26.99;38.77
41706;BME280;27385;51.096;17.190;2022-07-29T12:07:29;100434.98;;;27.03;38.75
41706;BME280;27385;51.096;17.190;2022-07-29T12:10:02;100433.66;;;27.06;38.41
41706;BME280;27385;51.096;17.190;2022-07-29T12:12:34;100436.05;;;27.07;38.40
41706;BME280;27385;51.096;17.190;2022-07-29T12:15:20;100432.27;;;27.08;37.93
41706;BME280;27385;51.096;17.190;2022-07-29T12:17:54;100426.86;;;27.05;38.05
41706;BME280;27385;51.096;17.190;2022-07-29T12:20:27;100423.09;;;27.08;38.35
41706;BME280;27385;51.096;17.190;2022-07-29T12:23:03;100423.28;;;27.17;38.77
41706;BME280;27385;51.096;17.190;2022-07-29T12:25:36;100422.02;;;27.26;38.76
41706;BME280;27385;51.096;17.190;2022-07-29T12:28:09;100418.71;;;27.33;38.66
41706;BME280;27385;51.096;17.190;2022-07-29T12:30:44;100414.25;;;27.36;38.43
41706;BME280;27385;51.096;17.190;2022-07-29T12:33:21;100415.09;;;27.36;38.34
41706;BME280;27385;51.096;17.190;2022-07-29T12:35:56;100413.66;;;27.38;38.23
41706;BME280;27385;51.096;17.190;2022-07-29T12:38:28;100412.56;;;27.37;38.39
41706;BME280;27385;51.096;17.190;2022-07-29T12:41:00;100417.89;;;27.39;38.34
41706;BME280;27385;51.096;17.190;2022-07-29T12:43:32;100415.14;;;27.38;38.40
41706;BME280;27385;51.096;17.190;2022-07-29T12:46:14;100404.48;;;27.38;38.07
41706;BME280;27385;51.096;17.190;2022-07-29T12:48:49;100404.75;;;27.36;37.99
41706;BME280;27385;51.096;17.190;2022-07-29T12:51:31;100398.76;;;27.34;37.97
41706;BME280;27385;51.096;17.190;2022-07-29T12:54:05;100396.12;;;27.32;37.80
41706;BME280;27385;51.096;17.190;2022-07-29T12:56:37;100395.52;;;27.27;37.89
41706;BME280;27385;51.096;17.190;2022-07-29T12:59:17;100391.29;;;27.24;37.84
41706;BME280;27385;51.096;17.190;2022-07-29T13:01:51;100389.89;;;27.23;37.96
41706;BME280;27385;51.096;17.190;2022-07-29T13:04:31;100388.95;;;27.25;37.97
41706;BME280;27385;51.096;17.190;2022-07-29T13:07:04;100389.48;;;27.30;38.10
41706;BME280;27385;51.096;17.190;2022-07-29T13:09:41;100390.80;;;27.31;37.77
41706;BME280;27385;51.096;17.190;2022-07-29T13:12:13;100387.23;;;27.29;38.05
41706;BME280;27385;51.096;17.190;2022-07-29T13:14:46;100387.27;;;27.31;37.98
41706;BME280;27385;51.096;17.190;2022-07-29T13:17:19;100384.98;;;27.34;37.97
41706;BME280;27385;51.096;17.190;2022-07-29T13:20:04;100380.66;;;27.34;37.85
41706;BME280;27385;51.096;17.190;2022-07-29T13:22:36;100382.48;;;27.36;38.06